Latest Coastal Weather Observations for Cato Island

IDQ60701

Issued at 1:31 pm EST Sunday 26 February 2017 (issued every 10 minutes, with the page automatically refreshed every 10 minutes)

About coastal observations | Map of coastal stations | Coastal observations for QLD | Marine services | Other Formats
Station Details ID: 200601 Name: CATO ISLAND Lat: -23.25 Lon: 155.54 Height: 6.3 m
Data from the previous 72 hours. | See also: Recent months for locations in Queensland
Date/Time
EST
Temp
°C
Wind Pressure Rain since
9am
mm
Weather Cloud Vis
km
Sea
Height
m
Swell
Dir  Spd
kts
Gust
kts
hPa Trend Height
m
Period
s
Dir
26/01:30pm 27.3 E 12 15 1011.4 - - - - - - - - -
26/01:00pm 27.4 E 15 18 1011.7 - - - - - - - - -
26/12:30pm 27.8 ENE 16 19 1011.9 - - - - - - - - -
26/12:00pm 27.1 E 17 20 1012.2 - - - - - - - - -
26/11:30am 26.8 E 18 22 1012.4 - - - - - - - - -
26/11:00am 27.4 E 14 16 1012.6 - - - - - - - - -
26/10:30am 27.2 E 15 18 1012.7 - - - - - - - - -
26/10:00am 26.9 E 15 19 1012.7 - - - - - - - - -
26/09:30am 27.4 SE 13 16 1012.8 - - - - - - - - -
26/09:00am 26.5 E 13 15 1012.6 - - - - - - - - -
26/08:30am 26.5 ESE 17 19 1012.5 - - - - - - - - -
26/08:00am 27.1 ESE 14 17 1012.1 - - - - - - - - -
26/07:30am 27.0 ESE 12 14 1011.9 - - - - - - - - -
26/07:00am 27.1 ESE 11 14 1011.9 - - - - - - - - -
26/06:00am 26.5 ESE 12 13 1011.2 - - - - - - - - -
26/05:00am 26.5 E 13 15 1010.5 - - - - - - - - -
26/04:30am 26.3 E 12 14 1010.4 - - - - - - - - -
26/04:00am 26.5 E 12 14 1010.3 - - - - - - - - -
26/03:30am 26.3 E 13 15 1010.2 - - - - - - - - -
26/03:00am 26.4 E 13 16 1010.2 - - - - - - - - -
26/02:30am 26.5 E 13 15 1010.2 - - - - - - - - -
26/02:00am 26.5 E 13 16 1010.4 - - - - - - - - -
26/01:30am 26.4 ESE 14 16 1010.8 - - - - - - - - -
26/01:00am 26.5 E 15 17 1011.1 - - - - - - - - -
26/12:30am 26.4 ESE 13 16 1011.4 - - - - - - - - -
26/12:00am 26.2 ESE 13 15 1011.6 - - - - - - - - -
 
Date/Time
EST
Temp
°C
Wind Pressure Rain since
9am
mm
Weather Cloud Vis
km
Sea
Height
m
Swell
Dir  Spd
kts
Gust
kts
hPa Trend Height
m
Period
s
Dir
25/11:30pm 25.9 SE 15 18 1011.9 - - - - - - - - -
25/11:00pm 25.6 ESE 20 25 1012.3 - - - - - - - - -
25/10:30pm 26.7 ESE 16 18 1012.4 - - - - - - - - -
25/10:00pm 26.8 ESE 16 19 1012.5 - - - - - - - - -
25/09:30pm 26.7 ESE 15 18 1012.6 - - - - - - - - -
25/09:00pm 26.8 ESE 15 18 1012.6 - - - - - - - - -
25/08:30pm 26.8 ESE 16 19 1012.5 - - - - - - - - -
25/08:00pm 26.8 SE 17 21 1012.2 - - - - - - - - -
25/07:30pm 26.6 SE 16 19 1011.9 - - - - - - - - -
25/07:00pm 26.5 ESE 15 18 1011.9 - - - - - - - - -
25/06:30pm 26.0 ESE 18 22 1011.5 - - - - - - - - -
25/06:00pm 25.6 ESE 20 22 1011.4 - - - - - - - - -
25/05:30pm 25.8 ESE 24 27 1011.0 - - - - - - - - -
25/05:07pm 26.5 SE 18 29 1010.8 - - - - - - - - -
25/05:00pm 27.2 SE 16 19 1010.8 - - - - - - - - -
25/04:30pm 27.0 SE 15 17 1010.7 - - - - - - - - -
25/04:00pm 27.2 SE 14 17 1010.7 - - - - - - - - -
25/03:30pm 27.2 SE 15 17 1010.7 - - - - - - - - -
25/03:00pm 27.5 SE 15 18 1010.7 - - - - - - - - -
25/02:30pm 27.8 SE 14 17 1010.7 - - - - - - - - -
25/02:00pm 27.8 SE 12 15 1011.2 - - - - - - - - -
25/01:30pm 28.0 ESE 13 15 1011.4 - - - - - - - - -
25/01:00pm 27.9 SE 12 14 1011.8 - - - - - - - - -
25/12:30pm 28.0 ESE 12 16 1012.0 - - - - - - - - -
25/12:00pm 28.1 SE 12 14 1012.3 - - - - - - - - -
25/11:00am 28.2 SE 12 - 1012.9 - - - - - - - - -
25/10:30am 27.9 SE 13 15 1013.0 - - - - - - - - -
25/10:00am 27.7 ESE 12 - 1013.3 - - - - - - - - -
25/09:00am 27.5 ESE 13 - 1013.0 - - - - - - - - -
25/08:30am 27.4 ESE 13 16 1013.1 - - - - - - - - -
25/08:00am 27.4 ESE 13 15 1012.8 - - - - - - - - -
25/07:30am 27.2 ESE 14 16 1012.8 - - - - - - - - -
25/07:00am 27.1 ESE 14 17 1012.6 - - - - - - - - -
25/06:30am 26.6 ESE 15 17 1012.4 - - - - - - - - -
25/06:00am 26.6 E 14 16 1012.1 - - - - - - - - -
25/05:00am 26.3 E 15 17 1011.7 - - - - - - - - -
25/04:30am 24.9 E 18 26 1011.7 - - - - - - - - -
25/04:25am 25.7 E 16 26 1011.5 - - - - - - - - -
25/04:00am 26.6 E 14 16 1011.4 - - - - - - - - -
25/03:30am 26.6 ESE 14 16 1011.4 - - - - - - - - -
25/03:00am 26.7 E 14 17 1011.4 - - - - - - - - -
25/02:30am 26.6 ESE 14 18 1011.4 - - - - - - - - -
25/02:00am 26.6 ESE 14 17 1011.4 - - - - - - - - -
25/01:30am 26.6 E 15 17 1011.6 - - - - - - - - -
25/01:00am 26.7 E 15 17 1011.8 - - - - - - - - -
25/12:30am 26.9 ESE 15 17 1012.2 - - - - - - - - -
25/12:00am 26.6 E 14 16 1012.5 - - - - - - - - -
 
Date/Time
EST
Temp
°C
Wind Pressure Rain since
9am
mm
Weather Cloud Vis
km
Sea
Height
m
Swell
Dir  Spd
kts
Gust
kts
hPa Trend Height
m
Period
s
Dir
24/11:30pm 26.5 E 14 18 1013.1 - - - - - - - - -
24/11:00pm 26.9 ESE 15 17 1013.2 - - - - - - - - -
24/10:30pm 26.9 ESE 17 20 1013.5 - - - - - - - - -
24/10:00pm 26.7 E 18 22 1013.7 - - - - - - - - -
24/09:30pm 26.1 ESE 20 25 1013.8 - - - - - - - - -
24/09:22pm 26.0 SE 23 27 1013.8 - - - - - - - - -
24/09:00pm 26.9 E 15 19 1013.9 - - - - - - - - -
24/08:30pm 27.4 ESE 17 21 1013.7 - - - - - - - - -
24/08:00pm 26.9 ESE 18 21 1013.6 - - - - - - - - -
24/07:30pm 27.2 ESE 16 19 1013.2 - - - - - - - - -
24/07:00pm 27.1 ESE 15 18 1013.3 - - - - - - - - -
24/06:30pm 27.4 SE 17 19 1013.1 - - - - - - - - -
24/06:00pm 27.3 SE 17 19 1012.8 - - - - - - - - -
24/05:30pm 27.5 SE 18 21 1012.6 - - - - - - - - -
24/05:00pm 27.4 SSE 15 17 1012.5 - - - - - - - - -
24/04:30pm 27.4 SE 16 18 1012.5 - - - - - - - - -
24/04:00pm 27.7 SE 16 19 1012.4 - - - - - - - - -
24/03:30pm 27.8 SE 16 19 1012.6 - - - - - - - - -
24/03:00pm 27.7 SE 16 18 1012.6 - - - - - - - - -
24/02:30pm 27.5 SE 17 19 1012.6 - - - - - - - - -
24/02:00pm 27.5 SE 21 25 1012.7 - - - - - - - - -
24/01:49pm 28.0 ESE 20 23 1012.8 - - - - - - - - -
24/01:30pm 27.8 SSE 19 21 1012.9 - - - - - - - - -
24/01:00pm 27.9 SSE 18 20 1013.1 - - - - - - - - -
24/12:30pm 28.3 SE 15 17 1013.5 - - - - - - - - -
24/12:00pm 28.2 SE 16 - 1013.7 - - - - - - - - -
24/11:30am 28.2 SE 15 17 1014.1 - - - - - - - - -
24/11:00am 28.3 SE 15 18 1014.3 - - - - - - - - -
24/10:00am 27.9 ESE 13 17 1014.7 - - - - - - - - -
24/09:30am 28.0 SE 13 15 1014.7 - - - - - - - - -
24/09:00am 28.1 SE 13 15 1014.6 - - - - - - - - -
24/08:30am 27.8 SE 14 17 1014.6 - - - - - - - - -
24/08:00am 27.7 ESE 14 17 1014.5 - - - - - - - - -
24/07:30am 27.4 ESE 15 17 1014.3 - - - - - - - - -
24/07:00am 27.4 ESE 14 18 1014.3 - - - - - - - - -
24/06:30am 27.3 ESE 14 17 1014.0 - - - - - - - - -
24/06:00am 27.1 ESE 15 17 1013.7 - - - - - - - - -
24/05:30am 26.8 ESE 16 18 1013.4 - - - - - - - - -
24/05:00am 26.9 ESE 16 18 1013.3 - - - - - - - - -
24/04:30am 26.9 ESE 17 19 1013.2 - - - - - - - - -
24/04:00am 27.0 ESE 16 19 1013.1 - - - - - - - - -
24/03:30am 26.9 ESE 17 19 1013.0 - - - - - - - - -
24/03:00am 26.9 ESE 17 19 1013.1 - - - - - - - - -
24/02:30am 27.0 ESE 18 21 1013.1 - - - - - - - - -
24/02:00am 27.0 ESE 19 21 1013.3 - - - - - - - - -
24/01:30am 27.1 ESE 20 22 1013.6 - - - - - - - - -
24/01:00am 26.9 ESE 18 21 1014.0 - - - - - - - - -
24/12:30am 27.1 ESE 18 21 1014.1 - - - - - - - - -
24/12:00am 26.7 ESE 18 20 1014.4 - - - - - - - - -
 
Date/Time
EST
Temp
°C
Wind Pressure Rain since
9am
mm
Weather Cloud Vis
km
Sea
Height
m
Swell
Dir  Spd
kts
Gust
kts
hPa Trend Height
m
Period
s
Dir
23/11:30pm 26.0 E 18 23 1014.6 - - - - - - - - -
23/11:00pm 25.7 ESE 17 27 1014.7 - - - - - - - - -
23/10:58pm 26.6 ESE 16 27 1014.7 - - - - - - - - -
23/10:30pm 27.4 ESE 17 19 1014.6 - - - - - - - - -
23/10:00pm 27.5 SE 17 20 1014.7 - - - - - - - - -
23/09:30pm 27.5 ESE 15 17 1014.8 - - - - - - - - -
23/09:00pm 27.5 SE 16 18 1014.9 - - - - - - - - -
23/08:30pm 27.4 SE 16 19 1014.8 - - - - - - - - -
23/08:00pm 27.5 SE 16 19 1014.7 - - - - - - - - -
23/07:30pm 27.5 SE 17 19 1014.6 - - - - - - - - -
23/07:00pm 27.5 SE 15 17 1014.3 - - - - - - - - -
23/06:30pm 27.5 SE 14 17 1014.0 - - - - - - - - -
23/06:00pm 27.6 SE 14 17 1013.7 - - - - - - - - -
23/05:30pm 27.6 SE 14 16 1013.4 - - - - - - - - -
23/05:00pm 27.7 SE 13 15 1013.2 - - - - - - - - -
23/04:30pm 27.8 SE 13 15 1012.9 - - - - - - - - -
23/04:00pm 28.1 SE 12 14 1012.8 - - - - - - - - -
23/03:30pm 28.2 SSE 11 13 1012.8 - - - - - - - - -
23/03:00pm 28.5 SE 11 13 1012.8 - - - - - - - - -
23/02:30pm 28.3 ESE 11 13 1012.9 - - - - - - - - -
23/02:00pm 28.3 ESE 11 13 1013.2 - - - - - - - - -

Other Formats:

Comma delimited format used in spreadsheet applications
http://www.bom.gov.au/fwo/IDQ60701/IDQ60701.94394.axf

JavaScript Object Notation format (JSON) in row-major order
http://www.bom.gov.au/fwo/IDQ60701/IDQ60701.94394.json